Time;durP1;ratioP1;P1;durP2;ratioP2;P2;SDS_P1;SDS_P2;PMS_P1;PMS_P2;Temp;Humidity;BMP_temperature;BMP_pressure;BME280_temperature;BME280_humidity;BME280_pressure;Samples;Min_cycle;Max_cycle;Signal;HPM_P1;HPM_P2
2022/01/21 00:00:44;;;;;;;30.17;6.80;;;4.90;63.10;;;;;;6233515;23;20000;-60
2022/01/21 00:03:10;;;;;;;21.15;5.47;;;4.90;63.10;;;;;;6232862;23;20004;-60
2022/01/21 00:05:36;;;;;;;26.70;7.20;;;4.90;63.00;;;;;;6235937;23;20000;-60
2022/01/21 00:08:03;;;;;;;26.45;6.43;;;4.90;63.00;;;;;;6234054;23;19996;-59
2022/01/21 00:10:29;;;;;;;26.13;6.47;;;4.90;63.00;;;;;;6231653;23;20452;-60
2022/01/21 00:12:56;;;;;;;21.40;5.20;;;4.80;63.10;;;;;;6234008;23;20000;-60
2022/01/21 00:15:22;;;;;;;22.33;4.65;;;4.80;63.10;;;;;;6234157;23;19996;-60
2022/01/21 00:17:49;;;;;;;15.15;3.83;;;4.80;63.30;;;;;;6233267;22;20020;-60
2022/01/21 00:31:13;;;;;;;20.02;3.58;;;4.70;63.20;;;;;;6241507;23;20745;-57
2022/01/21 00:33:39;;;;;;;21.45;4.82;;;4.70;63.40;;;;;;6234337;23;20417;-58
2022/01/21 00:36:06;;;;;;;23.33;4.97;;;4.70;63.60;;;;;;6231563;23;20019;-59
2022/01/21 00:38:33;;;;;;;23.00;3.97;;;4.60;63.70;;;;;;6235312;23;20003;-57
2022/01/21 00:41:02;;;;;;;25.25;4.15;;;4.60;63.80;;;;;;6232923;22;20337;-59
2022/01/21 00:43:31;;;;;;;19.05;3.58;;;4.60;64.00;;;;;;6231391;23;20020;-57
2022/01/21 00:46:01;;;;;;;29.73;3.60;;;4.60;64.00;;;;;;6232419;22;20004;-58
2022/01/21 00:48:27;;;;;;;16.20;3.10;;;4.60;64.00;;;;;;6232189;22;20003;-59
2022/01/21 00:50:54;;;;;;;19.52;3.95;;;4.60;64.20;;;;;;6229636;23;20015;-58
2022/01/21 00:53:20;;;;;;;22.65;3.47;;;4.60;64.20;;;;;;6234449;22;20325;-59
2022/01/21 00:55:46;;;;;;;13.38;2.95;;;4.70;64.30;;;;;;6234104;22;20004;-59
2022/01/21 00:58:13;;;;;;;18.98;3.72;;;4.70;64.20;;;;;;6234807;23;20003;-59
2022/01/21 01:00:39;;;;;;;25.58;4.47;;;4.70;64.20;;;;;;6230575;22;20027;-59
2022/01/21 01:03:05;;;;;;;22.15;5.03;;;4.70;64.20;;;;;;6231687;23;20190;-59
2022/01/21 01:05:32;;;;;;;22.60;5.00;;;4.70;64.00;;;;;;6234496;23;19996;-57
2022/01/21 01:07:59;;;;;;;18.90;4.30;;;4.70;64.00;;;;;;6234084;23;20008;-59
2022/01/21 01:10:42;;;;;;;20.00;4.07;;;4.70;64.00;;;;;;6231448;23;20007;-57
2022/01/21 01:21:23;;;;;;;19.30;5.97;;;4.70;64.10;;;;;;6241659;23;20015;-60
2022/01/21 01:29:13;;;;;;;31.23;5.82;;;4.70;64.30;;;;;;6243910;23;20051;-58
2022/01/21 01:31:40;;;;;;;26.48;5.68;;;4.70;64.40;;;;;;6230908;23;20004;-60
2022/01/21 01:34:06;;;;;;;25.60;5.47;;;4.70;64.50;;;;;;6233555;23;20004;-58
2022/01/21 01:36:33;;;;;;;30.70;6.72;;;4.70;64.50;;;;;;6231395;23;20019;-59
2022/01/21 01:39:32;;;;;;;21.33;6.22;;;4.70;64.60;;;;;;6234410;23;20016;-58
2022/01/21 01:41:58;;;;;;;30.67;6.05;;;4.70;64.50;;;;;;6230330;22;20315;-60
2022/01/21 01:49:53;;;;;;;23.65;6.13;;;4.60;64.60;;;;;;6244037;23;20326;-59
2022/01/21 01:52:19;;;;;;;25.48;6.38;;;4.60;64.50;;;;;;6230403;23;20000;-59
2022/01/21 01:54:50;;;;;;;29.98;6.18;;;4.60;64.80;;;;;;6234298;23;20004;-59
2022/01/21 01:57:17;;;;;;;24.92;6.18;;;4.60;64.90;;;;;;6243726;23;20004;-59
2022/01/21 01:59:43;;;;;;;29.98;5.63;;;4.60;64.80;;;;;;6234158;23;20008;-59
2022/01/21 02:02:13;;;;;;;19.27;6.03;;;4.60;64.90;;;;;;6226341;23;20405;-59
2022/01/21 02:04:40;;;;;;;24.83;6.07;;;4.60;64.90;;;;;;6233348;23;20007;-58
2022/01/21 02:07:06;;;;;;;27.88;6.97;;;4.60;64.90;;;;;;6235150;23;20459;-59
2022/01/21 02:09:33;;;;;;;17.95;5.45;;;4.60;64.90;;;;;;6233525;23;20004;-59
2022/01/21 02:11:59;;;;;;;18.40;5.35;;;4.60;64.90;;;;;;6230649;23;20001;-60
2022/01/21 02:14:33;;;;;;;20.20;5.15;;;4.60;64.90;;;;;;6234578;23;20000;-59
2022/01/21 02:22:17;;;;;;;18.27;5.18;;;4.70;65.00;;;;;;6240429;23;20021;-59
2022/01/21 02:24:50;;;;;;;14.90;3.97;;;4.70;65.00;;;;;;6231610;22;20262;-59
2022/01/21 02:27:17;;;;;;;13.52;3.72;;;4.70;64.90;;;;;;6233690;22;20463;-59
2022/01/21 02:29:53;;;;;;;29.73;5.05;;;4.70;64.90;;;;;;6235260;23;20019;-58
2022/01/21 02:32:20;;;;;;;25.23;4.55;;;4.80;64.70;;;;;;6230683;22;20008;-56
2022/01/21 02:34:48;;;;;;;19.98;4.18;;;4.80;64.70;;;;;;6235292;23;20021;-57
2022/01/21 02:37:20;;;;;;;30.42;4.70;;;4.80;64.50;;;;;;6231220;23;19996;-58
2022/01/21 02:39:47;;;;;;;15.07;4.03;;;4.80;64.30;;;;;;6234097;23;19996;-57
2022/01/21 02:42:14;;;;;;;25.40;5.32;;;4.90;64.40;;;;;;6234912;23;20019;-56
2022/01/21 02:44:41;;;;;;;25.73;5.07;;;4.90;64.40;;;;;;6235897;22;20007;-58
2022/01/21 02:47:08;;;;;;;20.63;5.22;;;4.90;64.40;;;;;;6231603;22;20004;-56
2022/01/21 02:49:36;;;;;;;19.52;5.72;;;4.90;64.40;;;;;;6234958;22;20008;-58
2022/01/21 02:52:04;;;;;;;22.88;5.35;;;4.90;64.40;;;;;;6233228;23;20000;-58
2022/01/21 02:54:33;;;;;;;21.70;5.22;;;4.90;64.20;;;;;;6233712;22;20016;-59
2022/01/21 02:57:01;;;;;;;25.65;5.28;;;4.80;64.00;;;;;;6235425;23;20000;-57
2022/01/21 02:59:27;;;;;;;27.17;5.38;;;4.80;64.00;;;;;;6235710;23;20810;-56
2022/01/21 03:01:53;;;;;;;22.50;5.97;;;4.80;64.10;;;;;;6228825;23;20004;-58
2022/01/21 03:04:36;;;;;;;29.92;5.05;;;4.80;64.20;;;;;;6236144;23;20015;-57
2022/01/21 03:07:02;;;;;;;26.20;5.13;;;4.80;64.10;;;;;;6235634;22;20425;-59
2022/01/21 03:09:29;;;;;;;23.90;5.07;;;4.80;64.00;;;;;;6235740;23;20421;-57
2022/01/21 03:11:55;;;;;;;19.48;4.82;;;4.80;64.00;;;;;;6234751;23;20329;-58
2022/01/21 03:14:21;;;;;;;29.63;5.80;;;4.80;64.10;;;;;;6236149;23;20000;-57
2022/01/21 03:16:47;;;;;;;18.35;4.75;;;4.70;64.10;;;;;;6231658;22;20012;-59
2022/01/21 03:19:14;;;;;;;21.48;5.40;;;4.70;64.30;;;;;;6245702;23;20001;-57
2022/01/21 03:21:40;;;;;;;30.48;5.70;;;4.70;64.30;;;;;;6232341;23;20004;-57
2022/01/21 03:24:06;;;;;;;24.02;5.72;;;4.70;64.40;;;;;;6233741;22;20015;-58
2022/01/21 03:26:33;;;;;;;21.88;5.60;;;4.70;64.50;;;;;;6235272;23;20007;-58
2022/01/21 03:29:02;;;;;;;22.85;5.47;;;4.70;64.60;;;;;;6235788;23;20003;-58
2022/01/21 03:31:29;;;;;;;28.55;5.05;;;4.60;64.50;;;;;;6231335;23;20000;-59
2022/01/21 03:34:00;;;;;;;28.92;4.97;;;4.60;64.50;;;;;;6234472;23;19996;-58
2022/01/21 03:36:28;;;;;;;21.73;5.25;;;4.70;64.60;;;;;;6233364;23;20330;-59
2022/01/21 03:38:54;;;;;;;21.88;4.97;;;4.70;64.60;;;;;;6231833;22;20015;-57
2022/01/21 03:41:21;;;;;;;24.98;4.85;;;4.70;64.60;;;;;;6234158;23;20004;-59
2022/01/21 03:43:49;;;;;;;23.67;5.55;;;4.70;64.60;;;;;;6236157;23;20004;-58
2022/01/21 03:46:16;;;;;;;27.73;5.90;;;4.70;64.60;;;;;;6232728;23;20563;-59
2022/01/21 03:48:46;;;;;;;24.20;4.68;;;4.70;64.60;;;;;;6233690;23;19999;-59
2022/01/21 03:51:13;;;;;;;22.30;4.45;;;4.70;64.60;;;;;;6245132;23;20019;-59
2022/01/21 03:53:39;;;;;;;19.58;4.65;;;4.70;64.60;;;;;;6235540;23;20011;-58
2022/01/21 03:56:05;;;;;;;25.65;5.53;;;4.70;64.60;;;;;;6234652;23;19996;-60
2022/01/21 03:58:31;;;;;;;24.30;6.00;;;4.70;64.60;;;;;;6234126;23;20011;-59
2022/01/21 04:00:58;;;;;;;25.60;6.32;;;4.70;64.70;;;;;;6229938;23;20480;-59
2022/01/21 04:03:25;;;;;;;23.80;7.20;;;4.70;64.70;;;;;;6233368;23;20000;-59
2022/01/21 04:05:51;;;;;;;25.13;7.40;;;4.70;64.70;;;;;;6233571;23;20003;-59
2022/01/21 04:08:18;;;;;;;24.70;6.07;;;4.70;64.60;;;;;;6234960;23;20003;-59
2022/01/21 04:10:48;;;;;;;22.70;6.63;;;4.70;64.60;;;;;;6233882;23;20000;-59
2022/01/21 04:13:16;;;;;;;20.75;6.25;;;4.70;64.60;;;;;;6234409;23;20429;-59
2022/01/21 04:15:45;;;;;;;20.77;6.00;;;4.70;64.60;;;;;;6233142;22;20011;-59
2022/01/21 04:18:15;;;;;;;27.25;7.03;;;4.70;64.60;;;;;;6233189;22;20017;-57
2022/01/21 04:20:43;;;;;;;32.20;7.53;;;4.70;64.60;;;;;;6233897;23;20001;-57
2022/01/21 04:23:10;;;;;;;29.25;7.75;;;4.70;64.60;;;;;;6234977;22;20008;-60
2022/01/21 04:25:38;;;;;;;31.85;11.00;;;4.70;64.50;;;;;;6234860;23;19996;-59
2022/01/21 04:28:04;;;;;;;43.22;11.15;;;4.70;64.60;;;;;;6235062;23;19996;-59
2022/01/21 04:30:32;;;;;;;35.95;11.05;;;4.70;64.60;;;;;;6233237;23;20011;-59
2022/01/21 04:32:58;;;;;;;31.50;9.45;;;4.70;64.60;;;;;;6232321;23;20008;-59
2022/01/21 04:35:24;;;;;;;25.48;8.18;;;4.60;64.80;;;;;;6234109;22;20008;-57
2022/01/21 04:38:00;;;;;;;27.52;9.75;;;4.70;64.90;;;;;;6235042;23;20011;-59
2022/01/21 04:40:33;;;;;;;35.58;9.30;;;4.70;65.00;;;;;;6242705;23;20321;-59
2022/01/21 04:48:30;;;;;;;29.90;8.57;;;4.60;65.10;;;;;;6242970;23;20015;-59
2022/01/21 04:51:00;;;;;;;30.75;7.60;;;4.70;65.10;;;;;;6232465;23;20012;-59
2022/01/21 04:53:30;;;;;;;34.33;7.47;;;4.70;65.20;;;;;;6233987;22;20000;-59
2022/01/21 04:55:56;;;;;;;25.13;6.47;;;4.70;65.20;;;;;;6233965;22;20000;-59
2022/01/21 04:58:22;;;;;;;26.85;7.75;;;4.70;65.20;;;;;;6234096;23;20333;-59
2022/01/21 05:00:48;;;;;;;31.75;9.50;;;4.70;65.20;;;;;;6231528;23;19996;-59
2022/01/21 05:03:15;;;;;;;31.77;8.88;;;4.70;65.30;;;;;;6232273;23;20322;-59
2022/01/21 05:05:41;;;;;;;26.00;6.10;;;4.60;65.30;;;;;;6233762;22;20004;-57
2022/01/21 05:08:19;;;;;;;31.67;7.70;;;4.70;65.40;;;;;;6235036;23;19996;-59
2022/01/21 05:10:45;;;;;;;22.55;7.75;;;4.70;65.40;;;;;;6242637;23;20000;-59
2022/01/21 05:13:14;;;;;;;21.63;6.97;;;4.70;65.40;;;;;;6232863;23;20027;-59
2022/01/21 05:15:58;;;;;;;22.20;6.50;;;4.70;65.40;;;;;;6229597;23;20011;-59
2022/01/21 05:18:24;;;;;;;20.95;5.22;;;4.70;65.30;;;;;;6227926;22;20039;-58
2022/01/21 05:20:51;;;;;;;25.88;6.22;;;4.70;65.30;;;;;;6232431;23;20019;-59
2022/01/21 05:23:17;;;;;;;19.02;4.93;;;4.70;65.30;;;;;;6234462;23;20000;-58
2022/01/21 05:25:43;;;;;;;21.75;5.35;;;4.70;65.40;;;;;;6234354;23;19996;-59
2022/01/21 05:28:09;;;;;;;19.33;5.20;;;4.70;65.40;;;;;;6232351;23;20489;-57
2022/01/21 05:30:35;;;;;;;22.67;5.03;;;4.70;65.50;;;;;;6230423;22;20004;-59
2022/01/21 05:33:02;;;;;;;27.05;5.65;;;4.80;65.60;;;;;;6232288;23;20000;-59
2022/01/21 05:35:28;;;;;;;28.60;5.03;;;4.80;65.50;;;;;;6232994;22;20011;-58
2022/01/21 05:37:54;;;;;;;16.23;4.57;;;4.80;65.50;;;;;;6233740;23;20007;-59
2022/01/21 05:40:21;;;;;;;24.90;5.00;;;4.80;65.40;;;;;;6231294;23;20015;-59
2022/01/21 05:42:48;;;;;;;18.85;5.07;;;4.90;65.30;;;;;;6228479;23;20027;-59
2022/01/21 05:47:58;;;;;;;19.42;5.43;;;5.00;65.10;;;;;;6240715;23;20011;-59
2022/01/21 05:50:25;;;;;;;31.70;6.75;;;5.00;64.90;;;;;;6229482;23;20000;-59
2022/01/21 05:52:51;;;;;;;33.95;6.43;;;5.00;64.80;;;;;;6233777;23;20338;-59
2022/01/21 05:55:17;;;;;;;23.40;6.50;;;5.00;64.80;;;;;;6232871;23;20015;-59
2022/01/21 05:57:44;;;;;;;36.03;6.75;;;5.10;64.90;;;;;;6227151;22;20008;-59
2022/01/21 06:00:11;;;;;;;25.77;5.72;;;5.10;64.80;;;;;;6227996;22;20008;-57
2022/01/21 06:02:38;;;;;;;28.58;7.15;;;5.10;64.70;;;;;;6230744;22;20004;-59
2022/01/21 06:05:05;;;;;;;29.05;6.43;;;5.10;64.70;;;;;;6232950;22;20004;-59
2022/01/21 06:07:32;;;;;;;21.95;6.93;;;5.10;64.60;;;;;;6233093;23;20616;-59
2022/01/21 06:09:58;;;;;;;26.90;7.05;;;5.10;64.50;;;;;;6230358;23;20340;-59
2022/01/21 06:12:24;;;;;;;30.55;6.45;;;5.10;64.40;;;;;;6230731;23;20008;-58
2022/01/21 06:14:51;;;;;;;27.33;6.45;;;5.20;64.40;;;;;;6234830;23;20034;-57
2022/01/21 06:17:17;;;;;;;24.05;6.63;;;5.20;64.30;;;;;;6232651;22;20015;-58
2022/01/21 06:19:44;;;;;;;28.40;6.85;;;5.10;64.20;;;;;;6233216;23;20460;-59
2022/01/21 06:22:12;;;;;;;37.17;7.03;;;5.20;64.20;;;;;;6231503;22;20019;-59
2022/01/21 06:24:40;;;;;;;25.55;6.45;;;5.20;64.20;;;;;;6231133;22;20359;-59
2022/01/21 06:27:07;;;;;;;23.92;5.68;;;5.20;64.20;;;;;;6231435;23;20733;-59
2022/01/21 06:29:33;;;;;;;16.27;5.20;;;5.20;64.30;;;;;;6228658;23;20326;-58
2022/01/21 06:31:59;;;;;;;26.25;6.78;;;5.20;64.20;;;;;;6230872;23;20004;-58
2022/01/21 06:34:25;;;;;;;26.30;5.65;;;5.20;64.10;;;;;;6229553;23;20015;-58
2022/01/21 06:36:52;;;;;;;24.65;6.28;;;5.20;64.00;;;;;;6231273;23;20254;-59
2022/01/21 06:39:18;;;;;;;20.67;5.60;;;5.20;64.00;;;;;;6230822;23;20005;-59
2022/01/21 06:41:46;;;;;;;22.50;5.75;;;5.20;63.90;;;;;;6231732;23;20441;-59
2022/01/21 06:44:14;;;;;;;27.42;5.80;;;5.20;64.00;;;;;;6228224;22;20023;-59
2022/01/21 06:46:40;;;;;;;22.88;5.93;;;5.20;64.00;;;;;;6229275;23;20669;-58
2022/01/21 06:49:07;;;;;;;26.23;5.72;;;5.20;64.00;;;;;;6227973;23;20008;-57
2022/01/21 06:51:33;;;;;;;18.95;5.38;;;5.20;64.00;;;;;;6232724;23;20000;-59
2022/01/21 06:53:59;;;;;;;24.63;6.07;;;5.20;64.00;;;;;;6228996;22;20000;-58
2022/01/21 06:56:25;;;;;;;23.67;5.78;;;5.20;64.10;;;;;;6229575;22;20416;-59
2022/01/21 06:58:52;;;;;;;20.38;6.07;;;5.20;63.90;;;;;;6232298;23;20011;-60
2022/01/21 07:01:18;;;;;;;19.17;5.63;;;5.20;63.90;;;;;;6231656;23;20011;-58
2022/01/21 07:03:44;;;;;;;22.63;6.13;;;5.20;63.90;;;;;;6230681;23;20007;-58
2022/01/21 07:06:11;;;;;;;23.83;6.20;;;5.20;63.80;;;;;;6232831;23;20000;-59
2022/01/21 07:08:37;;;;;;;32.22;6.30;;;5.20;64.60;;;;;;6231724;22;20154;-59
2022/01/21 07:11:03;;;;;;;22.77;6.30;;;5.20;64.00;;;;;;6232555;23;20063;-59
2022/01/21 07:13:30;;;;;;;26.48;6.18;;;5.20;64.00;;;;;;6233642;23;20453;-57
2022/01/21 07:15:58;;;;;;;32.13;7.13;;;5.20;63.90;;;;;;6231416;23;20000;-59
2022/01/21 07:18:24;;;;;;;34.15;6.60;;;5.20;63.90;;;;;;6230221;22;20023;-58
2022/01/21 07:20:50;;;;;;;22.88;5.88;;;5.20;63.90;;;;;;6234552;23;20325;-59
2022/01/21 07:23:17;;;;;;;24.95;6.45;;;5.20;63.90;;;;;;6234687;23;20004;-58
2022/01/21 07:25:43;;;;;;;24.33;6.75;;;5.20;64.00;;;;;;6234376;23;20008;-56
2022/01/21 07:28:09;;;;;;;22.02;6.05;;;5.20;64.00;;;;;;6233304;23;20004;-59
2022/01/21 07:30:35;;;;;;;24.73;6.63;;;5.20;64.20;;;;;;6231371;22;20004;-59
2022/01/21 07:33:01;;;;;;;22.50;6.88;;;5.20;64.10;;;;;;6233224;23;20008;-59
2022/01/21 07:35:28;;;;;;;40.03;7.20;;;5.20;64.20;;;;;;6234357;23;20526;-58
2022/01/21 07:37:54;;;;;;;19.30;6.45;;;5.20;64.10;;;;;;6206707;23;20055;-60
2022/01/21 07:40:20;;;;;;;36.53;6.30;;;5.20;64.10;;;;;;6232893;23;20340;-59
2022/01/21 07:42:46;;;;;;;16.17;5.70;;;5.20;64.20;;;;;;6232929;23;20303;-60
2022/01/21 07:45:12;;;;;;;18.83;5.93;;;5.20;64.20;;;;;;6233685;22;20011;-59
2022/01/21 07:47:39;;;;;;;23.45;6.32;;;5.20;64.20;;;;;;6232571;23;20012;-60
2022/01/21 07:50:05;;;;;;;23.83;6.35;;;5.30;64.40;;;;;;6233569;23;20182;-58
2022/01/21 07:52:32;;;;;;;26.13;6.22;;;5.20;64.30;;;;;;6234491;23;20008;-58
2022/01/21 07:54:58;;;;;;;19.58;6.43;;;5.20;64.30;;;;;;6229881;22;20008;-60
2022/01/21 07:57:24;;;;;;;23.67;5.68;;;5.30;64.50;;;;;;6234845;23;20031;-58
2022/01/21 07:59:51;;;;;;;26.67;5.78;;;5.30;64.50;;;;;;6233099;23;20022;-60
2022/01/21 08:02:18;;;;;;;24.83;6.05;;;5.30;64.50;;;;;;6229347;22;20325;-58
2022/01/21 08:04:44;;;;;;;21.13;6.53;;;5.30;64.40;;;;;;6233653;23;20329;-59
2022/01/21 08:07:11;;;;;;;18.98;5.82;;;5.30;64.40;;;;;;6233233;23;20302;-60
2022/01/21 08:09:37;;;;;;;21.88;5.90;;;5.30;64.40;;;;;;6232512;22;20011;-59
2022/01/21 08:12:04;;;;;;;27.77;6.68;;;5.30;64.50;;;;;;6231957;23;20408;-59
2022/01/21 08:14:30;;;;;;;23.88;6.55;;;5.30;64.50;;;;;;6233820;23;20004;-59
2022/01/21 08:16:56;;;;;;;26.55;6.05;;;5.30;64.60;;;;;;6230873;22;20035;-60
2022/01/21 08:19:23;;;;;;;18.20;5.95;;;5.30;64.60;;;;;;6232418;22;20008;-59
2022/01/21 08:21:49;;;;;;;35.75;6.35;;;5.30;64.60;;;;;;6233274;23;20000;-59
2022/01/21 08:24:15;;;;;;;25.80;6.25;;;5.30;64.60;;;;;;6232667;22;20429;-60
2022/01/21 08:26:41;;;;;;;34.33;6.43;;;5.30;64.60;;;;;;6233561;23;20058;-59
2022/01/21 08:29:07;;;;;;;27.25;6.85;;;5.40;64.70;;;;;;6233861;23;20372;-60
2022/01/21 08:31:34;;;;;;;25.77;6.55;;;5.30;64.60;;;;;;6232810;23;20004;-59
2022/01/21 08:34:01;;;;;;;23.67;7.00;;;5.40;64.60;;;;;;6232764;22;20006;-60
2022/01/21 08:36:27;;;;;;;23.98;7.22;;;5.40;64.70;;;;;;6233438;23;20004;-59
2022/01/21 08:38:54;;;;;;;23.45;6.80;;;5.40;64.60;;;;;;6233490;23;20464;-58
2022/01/21 08:41:21;;;;;;;25.40;6.63;;;5.40;64.60;;;;;;6231106;23;20039;-59
2022/01/21 08:43:47;;;;;;;24.42;6.85;;;5.40;64.60;;;;;;6232132;23;20055;-60
2022/01/21 08:46:13;;;;;;;26.15;7.68;;;5.40;64.70;;;;;;6233584;23;19997;-59
2022/01/21 08:48:39;;;;;;;26.15;6.63;;;5.50;64.70;;;;;;6232644;23;20000;-59
2022/01/21 08:51:11;;;;;;;22.25;5.70;;;5.50;64.70;;;;;;6235165;23;20167;-60
2022/01/21 08:53:42;;;;;;;25.75;6.35;;;5.50;64.60;;;;;;6233596;22;20008;-59
2022/01/21 08:56:12;;;;;;;28.73;6.60;;;5.50;64.60;;;;;;6233575;22;20000;-59
2022/01/21 08:58:40;;;;;;;23.33;7.03;;;5.50;64.40;;;;;;6231890;22;20456;-60
2022/01/21 09:01:08;;;;;;;23.77;6.32;;;5.60;64.40;;;;;;6233921;23;20720;-60
2022/01/21 09:03:34;;;;;;;25.27;6.68;;;5.60;64.40;;;;;;6232922;23;20004;-59
2022/01/21 09:06:00;;;;;;;24.90;7.22;;;5.60;64.40;;;;;;6234490;23;20166;-59
2022/01/21 09:08:30;;;;;;;22.30;6.63;;;5.60;64.30;;;;;;6232118;23;20318;-59
2022/01/21 09:10:59;;;;;;;27.35;7.35;;;5.60;64.30;;;;;;6227868;23;20009;-59
2022/01/21 09:13:29;;;;;;;22.35;6.82;;;5.60;64.30;;;;;;6232573;23;20012;-59
2022/01/21 09:15:59;;;;;;;28.90;7.85;;;5.60;64.20;;;;;;6228433;23;20015;-59
2022/01/21 09:18:44;;;;;;;22.98;8.05;;;5.60;64.20;;;;;;6227724;22;20024;-59
2022/01/21 09:21:12;;;;;;;32.05;7.85;;;5.70;64.30;;;;;;6232280;22;20000;-60
2022/01/21 09:23:39;;;;;;;24.88;8.73;;;5.70;64.30;;;;;;6227500;22;20263;-59
2022/01/21 09:26:07;;;;;;;27.35;8.25;;;5.70;64.40;;;;;;6232988;23;20302;-60
2022/01/21 09:28:34;;;;;;;22.35;6.90;;;5.70;64.40;;;;;;6232296;23;20003;-59
2022/01/21 09:31:00;;;;;;;26.05;8.90;;;5.60;64.40;;;;;;6228886;23;20298;-59
2022/01/21 09:33:27;;;;;;;24.38;7.85;;;5.70;64.50;;;;;;6233471;23;20008;-58
2022/01/21 09:35:53;;;;;;;27.25;9.65;;;5.70;65.00;;;;;;6225585;23;20327;-60
2022/01/21 09:38:20;;;;;;;32.60;10.13;;;5.60;64.60;;;;;;6231508;23;20326;-59
2022/01/21 09:40:49;;;;;;;27.20;10.23;;;5.60;64.50;;;;;;6230526;22;20418;-59
2022/01/21 09:43:17;;;;;;;26.35;10.00;;;5.60;64.60;;;;;;6231489;23;20015;-60
2022/01/21 09:45:51;;;;;;;34.55;10.93;;;5.60;64.70;;;;;;6231876;23;20449;-58
2022/01/21 09:48:23;;;;;;;24.58;9.70;;;5.60;65.00;;;;;;6226139;22;20011;-60
2022/01/21 09:50:52;;;;;;;33.35;10.68;;;5.60;65.10;;;;;;6232801;22;20436;-59
2022/01/21 09:53:31;;;;;;;26.25;13.02;;;5.60;65.00;;;;;;6231769;23;20000;-60
2022/01/21 09:56:01;;;;;;;27.70;10.70;;;5.60;65.00;;;;;;6228561;23;20511;-60
2022/01/21 09:58:28;;;;;;;26.80;10.30;;;5.60;65.00;;;;;;6231383;23;20003;-60
2022/01/21 10:01:00;;;;;;;42.33;12.32;;;5.60;65.20;;;;;;6224630;23;20001;-58
2022/01/21 10:03:27;;;;;;;36.72;12.45;;;5.60;65.20;;;;;;6229222;23;20003;-60
2022/01/21 10:05:54;;;;;;;33.17;12.52;;;5.60;65.20;;;;;;6232922;23;20016;-58
2022/01/21 10:08:23;;;;;;;32.10;12.27;;;5.60;65.20;;;;;;6234101;23;20004;-60
2022/01/21 10:10:50;;;;;;;33.65;11.32;;;5.60;65.30;;;;;;6233543;23;20000;-60
2022/01/21 10:13:19;;;;;;;28.38;9.73;;;5.60;65.50;;;;;;6230108;23;20000;-60
2022/01/21 10:15:46;;;;;;;27.67;10.23;;;5.60;65.50;;;;;;6231965;23;20008;-60
2022/01/21 10:18:14;;;;;;;24.23;9.73;;;5.70;65.70;;;;;;6231028;22;20012;-60
2022/01/21 10:21:12;;;;;;;30.67;9.88;;;5.70;65.90;;;;;;6232257;23;20007;-58
2022/01/21 10:23:41;;;;;;;26.17;10.45;;;5.70;65.90;;;;;;6230751;22;20445;-60
2022/01/21 10:26:18;;;;;;;20.42;9.68;;;5.80;65.70;;;;;;6232178;23;20004;-60
2022/01/21 10:28:53;;;;;;;26.48;8.82;;;5.80;65.80;;;;;;6244118;23;20008;-60
2022/01/21 10:31:19;;;;;;;36.42;9.02;;;5.90;65.40;;;;;;6230213;23;20015;-60
2022/01/21 10:33:48;;;;;;;27.55;10.35;;;6.00;65.50;;;;;;6232729;23;20016;-60
2022/01/21 10:36:29;;;;;;;27.27;10.30;;;6.00;65.50;;;;;;6233360;23;19996;-59
2022/01/21 10:39:27;;;;;;;21.73;8.13;;;6.10;65.40;;;;;;6233755;22;20341;-60
2022/01/21 10:41:55;;;;;;;32.30;10.32;;;6.20;65.10;;;;;;6231472;23;20008;-60
2022/01/21 10:44:21;;;;;;;32.83;9.70;;;6.20;64.70;;;;;;6232199;23;20015;-60
2022/01/21 10:47:01;;;;;;;31.55;9.65;;;6.20;64.50;;;;;;6232042;23;20421;-60
2022/01/21 10:49:27;;;;;;;27.45;9.48;;;6.20;64.40;;;;;;6235650;23;20000;-60
2022/01/21 10:51:55;;;;;;;35.83;10.13;;;6.30;64.40;;;;;;6235825;23;20000;-60
2022/01/21 10:54:26;;;;;;;20.65;8.80;;;6.40;64.50;;;;;;6235296;23;20003;-60
2022/01/21 10:57:22;;;;;;;22.77;9.48;;;6.40;64.30;;;;;;6231983;22;20305;-59
2022/01/21 11:00:08;;;;;;;22.90;9.60;;;6.40;64.20;;;;;;6204827;22;20008;-60
2022/01/21 11:02:46;;;;;;;28.92;9.48;;;6.50;64.20;;;;;;6239551;23;19999;-60
2022/01/21 11:05:21;;;;;;;22.83;9.77;;;6.50;63.90;;;;;;6245568;23;20008;-60
2022/01/21 11:08:04;;;;;;;21.98;9.60;;;6.50;63.80;;;;;;6235145;22;20015;-60
2022/01/21 11:10:36;;;;;;;31.63;9.45;;;6.60;63.70;;;;;;6245542;23;20004;-58
2022/01/21 11:13:12;;;;;;;21.83;9.45;;;6.50;63.60;;;;;;6235300;23;20185;-57
2022/01/21 11:15:42;;;;;;;27.02;8.85;;;6.60;63.60;;;;;;6245734;23;20003;-59
2022/01/21 11:18:13;;;;;;;20.77;8.57;;;6.60;63.60;;;;;;6233217;22;20022;-56
2022/01/21 11:20:41;;;;;;;22.05;8.45;;;6.60;63.70;;;;;;6245709;23;20182;-57
2022/01/21 11:23:09;;;;;;;24.55;10.23;;;6.60;63.70;;;;;;6235476;23;20007;-58
2022/01/21 11:25:43;;;;;;;37.08;9.95;;;6.70;63.60;;;;;;6229102;22;20012;-57
2022/01/21 11:28:22;;;;;;;23.52;9.50;;;6.70;63.40;;;;;;6225135;23;20000;-59
2022/01/21 11:30:50;;;;;;;22.50;9.35;;;6.70;63.40;;;;;;6229459;22;20008;-59
2022/01/21 11:33:17;;;;;;;20.50;8.90;;;6.70;63.40;;;;;;6228643;23;20445;-58
2022/01/21 11:35:43;;;;;;;21.42;9.10;;;6.70;63.40;;;;;;6230251;23;19996;-59
2022/01/21 11:38:12;;;;;;;23.58;9.82;;;6.80;63.60;;;;;;6226763;23;20703;-57
2022/01/21 11:40:39;;;;;;;24.27;9.15;;;6.80;63.70;;;;;;6231152;23;20007;-59
2022/01/21 11:43:08;;;;;;;20.45;9.20;;;6.80;63.50;;;;;;6229946;23;20037;-59
2022/01/21 11:50:47;;;;;;;27.42;7.88;;;6.90;63.50;;;;;;6231308;23;20023;-57
2022/01/21 11:53:14;;;;;;;24.15;8.43;;;7.00;63.50;;;;;;6234726;23;20007;-57
2022/01/21 11:55:46;;;;;;;23.83;8.48;;;7.00;63.40;;;;;;6233443;23;20000;-58
2022/01/21 11:58:23;;;;;;;20.80;7.50;;;7.00;63.00;;;;;;6233211;23;19993;-57
2022/01/21 12:00:52;;;;;;;23.83;6.97;;;7.00;62.80;;;;;;6233902;23;20004;-59
2022/01/21 12:03:22;;;;;;;23.52;7.25;;;7.00;62.80;;;;;;6232968;22;20005;-58
2022/01/21 12:05:50;;;;;;;17.00;7.03;;;7.00;62.70;;;;;;6234686;22;20015;-59
2022/01/21 12:08:49;;;;;;;23.75;7.60;;;7.10;63.00;;;;;;6233831;22;20409;-59
2022/01/21 12:11:37;;;;;;;18.58;6.53;;;7.10;63.00;;;;;;6231820;22;20010;-54
2022/01/21 12:14:40;;;;;;;21.00;6.47;;;7.10;63.00;;;;;;6233634;23;20000;-58
2022/01/21 12:17:18;;;;;;;13.63;6.07;;;7.20;62.80;;;;;;6238811;22;20019;-58
2022/01/21 12:19:44;;;;;;;18.42;7.20;;;7.20;62.80;;;;;;6245508;23;20007;-59
2022/01/21 12:22:18;;;;;;;16.00;6.43;;;7.30;62.90;;;;;;6232304;22;20329;-58
2022/01/21 12:25:05;;;;;;;18.88;6.30;;;7.30;62.70;;;;;;6233826;22;20015;-59
2022/01/21 12:27:31;;;;;;;19.30;6.45;;;7.30;62.60;;;;;;6233813;22;20004;-59
2022/01/21 12:30:26;;;;;;;21.27;6.60;;;7.40;62.70;;;;;;6234883;23;20003;-59
2022/01/21 12:32:55;;;;;;;16.88;5.88;;;7.40;62.50;;;;;;6228644;22;20000;-58
2022/01/21 12:35:22;;;;;;;21.65;5.78;;;7.40;62.10;;;;;;6233822;22;20338;-58
2022/01/21 12:41:04;;;;;;;17.60;5.47;;;7.50;61.90;;;;;;6171908;22;20011;-59
2022/01/21 12:43:40;;;;;;;14.73;5.68;;;7.50;61.90;;;;;;6231305;22;20011;-59
2022/01/21 12:46:16;;;;;;;21.20;6.28;;;7.50;61.90;;;;;;6232286;23;20008;-58
2022/01/21 12:48:44;;;;;;;18.83;5.85;;;7.50;61.80;;;;;;6243754;23;20003;-58
2022/01/21 12:56:48;;;;;;;26.88;6.13;;;7.60;61.30;;;;;;6243049;23;20015;-59
2022/01/21 12:59:23;;;;;;;17.63;6.15;;;7.70;61.20;;;;;;6234646;23;20011;-59
2022/01/21 13:01:51;;;;;;;16.10;5.15;;;7.70;61.00;;;;;;6241692;23;20445;-57
2022/01/21 13:04:54;;;;;;;20.02;5.75;;;7.70;61.00;;;;;;6232568;22;20449;-59
2022/01/21 13:07:34;;;;;;;20.52;5.63;;;7.80;60.90;;;;;;6234682;23;20444;-59
2022/01/21 13:10:20;;;;;;;33.67;5.75;;;7.80;60.80;;;;;;6242211;23;20012;-58
2022/01/21 13:15:46;;;;;;;23.00;4.60;;;7.80;61.60;;;;;;6242942;23;20008;-59
2022/01/21 13:18:24;;;;;;;25.55;5.80;;;7.80;60.70;;;;;;6232702;22;20686;-59
2022/01/21 13:20:54;;;;;;;16.90;4.95;;;7.80;60.80;;;;;;6242837;23;20306;-59
2022/01/21 13:23:36;;;;;;;17.48;5.35;;;7.90;60.90;;;;;;6229634;23;20000;-60
2022/01/21 13:26:14;;;;;;;16.95;5.18;;;7.90;60.90;;;;;;6232203;22;20008;-59
2022/01/21 13:29:12;;;;;;;22.98;6.10;;;7.90;60.80;;;;;;6232719;23;20039;-59
2022/01/21 13:31:48;;;;;;;16.85;5.53;;;7.90;60.70;;;;;;6231431;23;20004;-59
2022/01/21 13:34:26;;;;;;;16.98;4.38;;;7.90;60.30;;;;;;6233531;23;20015;-58
2022/01/21 13:36:54;;;;;;;15.27;4.82;;;7.90;60.30;;;;;;6244246;23;20000;-60
2022/01/21 13:39:31;;;;;;;17.70;4.60;;;7.90;60.30;;;;;;6232145;23;20000;-55
2022/01/21 13:42:10;;;;;;;10.00;3.80;;;7.90;60.60;;;;;;6242884;23;20547;-59
2022/01/21 13:44:50;;;;;;;13.15;4.50;;;7.80;60.60;;;;;;6233545;22;20302;-59
2022/01/21 13:47:36;;;;;;;17.95;4.25;;;7.90;60.80;;;;;;6242444;23;20004;-58
2022/01/21 13:50:14;;;;;;;17.35;4.40;;;7.90;60.80;;;;;;6231912;23;19996;-60
2022/01/21 13:52:46;;;;;;;15.27;4.20;;;7.90;60.80;;;;;;6233042;22;20019;-60
2022/01/21 13:55:30;;;;;;;13.07;3.90;;;7.90;60.70;;;;;;6233047;23;20003;-60
2022/01/21 13:57:59;;;;;;;16.02;4.32;;;7.90;60.70;;;;;;6243498;23;19996;-58